Hlavní strana
METAR-TAF:

METAR-TAF

Letiště :

Letiště Burgas

Burgas, Bulharsko

zeměpisná šířka: 42-29N, zeměpisná délka: 027-29E, výška: 16 m

Aktuální stav počasí

Zpráva byla vytvořena před 30 minutami, v 04:30 UTC
Západní vítr 4 kt
Teplota 17°C
Vlhkost vzduchu 88%
Tlak 1016 hPa
Viditelnost 10 km a více
Žádná oblačnost pod 1500 m, nevyskytují se cumulonimby.

METAR: LBBG 220430Z 26004KT CAVOK 17/15 Q1016 NOSIG

Čas: 08:00 (05:00 UTC)

Předpověď počasí

Zpráva byla vytvořena před 6 hodinami a 0 minutami, v 23:00 UTC
Předpověď platná od 22 v 00 UTC do 22 v 24 UTC
vítr z různých směrů 4 kt
Viditelnost 10 km a více
Žádná oblačnost pod 1500 m, nevyskytují se cumulonimby.
Změna
od 22 v 07 UTC do 22 v 09 UTC
Východní vítr 14 kt
Změna
od 22 v 18 UTC do 22 v 20 UTC
vítr z různých směrů 4 kt

TAF: LBBG 212300Z 2200/2224 VRB04KT CAVOK BECMG 2207/2209 09014KT BECMG 2218/2220 VRB04KT

Stav a předpovědi počasí z více než 4 000 letišť (zprávy METAR a TAF).

Červené a žluté tečky na mapě představují dostupné meteorologické stanice.

Když kurzor umístíte na tečku, zobrazí se název stanice.

Pak kliknutím zobrazíte stav a předpověď počasí.

Chcete-li změnit mapu, kliknutím na zelené tlačítko se znaménkem +mapu přiblížíte, kliknutím na zelené tlačítko se znaménkem – mapu oddálíte a kliknutím na zelené šipky přejdete na sousední mapy.


METAR-TAF: